Time;durP1;ratioP1;P1;durP2;ratioP2;P2;SDS_P1;SDS_P2;PMS_P1;PMS_P2;Temp;Humidity;BMP_temperature;BMP_pressure;BME280_temperature;BME280_humidity;BME280_pressure;Samples;Min_cycle;Max_cycle;Signal;HPM_P1;HPM_P2
2024/04/23 00:01:53;;;;;;;8.70;6.40;;;;;;;8.66;77.30;100214.61;107882;1253;60456;-74
2024/04/23 00:04:20;;;;;;;9.20;6.40;;;;;;;8.62;77.71;100213.02;107754;1253;60342;-72
2024/04/23 00:06:59;;;;;;;11.70;6.30;;;;;;;8.68;77.52;100213.02;107877;1255;71867;-74
2024/04/23 00:09:27;;;;;;;8.40;5.90;;;;;;;8.74;77.45;100210.79;108625;1253;67867;-75
2024/04/23 00:11:55;;;;;;;8.70;5.90;;;;;;;8.73;77.72;100208.45;107915;1253;71871;-72
2024/04/23 00:14:22;;;;;;;7.70;6.20;;;;;;;8.70;78.01;100209.82;107880;1253;61150;-73
2024/04/23 00:17:00;;;;;;;6.70;6.00;;;;;;;8.70;78.34;100212.77;107525;1253;61327;-73
2024/04/23 00:19:27;;;;;;;8.50;6.80;;;;;;;8.69;78.49;100217.27;107650;1253;74720;-74
2024/04/23 00:21:55;;;;;;;9.30;6.80;;;;;;;8.67;78.59;100213.81;107822;1253;68918;-75
2024/04/23 00:24:22;;;;;;;7.30;5.80;;;;;;;8.68;78.98;100215.29;107741;1254;70814;-75
2024/04/23 00:26:57;;;;;;;7.30;5.60;;;;;;;8.78;78.91;100211.64;107479;1253;61682;-72
2024/04/23 00:29:25;;;;;;;7.20;6.20;;;;;;;8.91;78.80;100213.62;107164;1253;61033;-72
2024/04/23 00:31:53;;;;;;;8.30;6.40;;;;;;;8.93;78.81;100211.02;107260;1253;73612;-74
2024/04/23 00:34:21;;;;;;;10.20;7.40;;;;;;;8.92;78.55;100213.01;106810;1253;70352;-73
2024/04/23 00:36:58;;;;;;;8.70;7.60;;;;;;;8.89;77.93;100219.46;106888;1254;71322;-73
2024/04/23 00:39:26;;;;;;;10.20;7.00;;;;;;;8.88;77.87;100220.48;107278;1253;61297;-73
2024/04/23 00:41:53;;;;;;;7.70;6.40;;;;;;;8.86;77.35;100219.58;106967;1259;61099;-74
2024/04/23 00:44:21;;;;;;;8.40;7.50;;;;;;;8.81;77.60;100218.96;107329;1253;73588;-73
2024/04/23 00:46:49;;;;;;;9.10;7.50;;;;;;;8.76;76.83;100221.27;106925;1253;70353;-73
2024/04/23 00:49:16;;;;;;;9.30;8.10;;;;;;;8.77;76.44;100221.46;107147;1261;70961;-73
2024/04/23 00:51:49;;;;;;;12.90;8.90;;;;;;;8.81;76.09;100222.11;107205;1254;61631;-73
2024/04/23 00:54:17;;;;;;;15.00;10.60;;;;;;;8.79;75.81;100222.02;108080;1253;61253;-73
2024/04/23 00:56:44;;;;;;;17.60;12.50;;;;;;;8.75;75.93;100221.46;107530;1257;73408;-74
2024/04/23 00:59:13;;;;;;;19.40;15.70;;;;;;;8.72;76.09;100221.23;106775;1253;68752;-73
2024/04/23 01:01:40;;;;;;;18.90;14.90;;;;;;;8.68;76.11;100220.73;107116;1253;71412;-73
2024/04/23 01:04:07;;;;;;;16.40;13.20;;;;;;;8.66;76.63;100218.22;107994;1254;61117;-74
2024/04/23 01:06:35;;;;;;;19.50;15.40;;;;;;;8.66;76.68;100217.89;107918;1253;59974;-74
2024/04/23 01:09:03;;;;;;;22.90;15.80;;;;;;;8.66;76.98;100222.50;107754;1253;72745;-74
2024/04/23 01:11:30;;;;;;;13.20;11.30;;;;;;;8.77;77.07;100224.73;107483;1253;69348;-73
2024/04/23 01:13:58;;;;;;;20.40;15.90;;;;;;;8.87;76.19;100225.48;107802;1253;71415;-72
2024/04/23 01:16:29;;;;;;;28.20;21.70;;;;;;;8.84;75.61;100224.39;107211;1253;61343;-73
2024/04/23 01:18:57;;;;;;;38.50;29.40;;;;;;;8.78;75.42;100227.61;106830;1258;61234;-72
2024/04/23 01:21:28;;;;;;;47.90;35.90;;;;;;;8.72;76.05;100235.22;106876;1253;73417;-71
2024/04/23 01:23:57;;;;;;;42.70;33.60;;;;;;;8.66;76.12;100232.73;106999;1260;69336;-74
2024/04/23 01:26:25;;;;;;;23.40;19.40;;;;;;;8.62;76.42;100234.91;107029;1253;71409;-74
2024/04/23 01:28:52;;;;;;;27.10;22.30;;;;;;;8.59;75.79;100234.13;106694;1255;59888;-71
2024/04/23 01:31:20;;;;;;;26.10;22.50;;;;;;;8.57;75.76;100233.05;106727;1259;61255;-73
2024/04/23 01:33:47;;;;;;;29.40;23.80;;;;;;;8.62;75.95;100233.80;106859;1253;73206;-74
2024/04/23 01:36:15;;;;;;;23.50;20.90;;;;;;;8.68;76.11;100233.84;106682;1253;68454;-74
2024/04/23 01:38:42;;;;;;;20.60;17.60;;;;;;;8.67;76.29;100238.27;106585;1256;72719;-72
2024/04/23 01:41:09;;;;;;;19.00;16.20;;;;;;;8.63;76.66;100242.60;107095;1258;60436;-73
2024/04/23 01:43:37;;;;;;;16.60;14.40;;;;;;;8.58;77.02;100244.95;107280;1253;61172;-74
2024/04/23 01:46:05;;;;;;;17.00;14.20;;;;;;;8.53;77.15;100249.12;107348;1253;73441;-71
2024/04/23 01:48:32;;;;;;;21.60;18.40;;;;;;;8.50;77.57;100255.23;107640;1253;68724;-73
2024/04/23 01:50:59;;;;;;;21.60;19.10;;;;;;;8.47;78.10;100261.54;107344;1256;70565;-72
2024/04/23 01:53:27;;;;;;;18.10;15.20;;;;;;;8.57;78.62;100265.76;107738;1253;61791;-73
2024/04/23 01:55:55;;;;;;;16.80;15.00;;;;;;;8.63;78.87;100267.80;107875;1253;61252;-74
2024/04/23 01:58:22;;;;;;;16.60;14.30;;;;;;;8.58;78.98;100272.36;107758;1253;73694;-74
2024/04/23 02:00:50;;;;;;;19.60;17.20;;;;;;;8.50;79.57;100271.73;107643;1253;68494;-73
2024/04/23 02:03:17;;;;;;;16.20;14.40;;;;;;;8.43;80.15;100271.02;108123;1254;71825;-75
2024/04/23 02:05:44;;;;;;;14.60;12.80;;;;;;;8.40;80.22;100278.73;108292;1256;59122;-77
2024/04/23 02:08:12;;;;;;;12.70;10.10;;;;;;;8.43;80.33;100282.16;108381;1253;59742;-73
2024/04/23 02:10:44;;;;;;;17.30;12.70;;;;;;;8.50;79.91;100281.10;108622;1253;73958;-73
2024/04/23 02:13:11;;;;;;;14.20;12.20;;;;;;;8.45;80.00;100278.45;107384;1260;69010;-74
2024/04/23 02:15:38;;;;;;;13.60;12.00;;;;;;;8.44;80.30;100283.84;107534;1255;71890;-73
2024/04/23 02:18:06;;;;;;;14.20;12.00;;;;;;;8.44;81.12;100289.02;107716;1254;61674;-73
2024/04/23 02:20:33;;;;;;;15.60;11.80;;;;;;;8.40;81.17;100288.63;107684;1253;61114;-74
2024/04/23 02:23:01;;;;;;;13.50;10.70;;;;;;;8.43;81.26;100291.14;108560;1253;73340;-73
2024/04/23 02:25:28;;;;;;;12.00;9.70;;;;;;;8.51;80.89;100292.77;108122;1253;68851;-73
2024/04/23 02:27:56;;;;;;;13.60;10.90;;;;;;;8.53;80.46;100292.41;108432;1253;71055;-74
2024/04/23 02:30:23;;;;;;;13.50;10.70;;;;;;;8.49;80.99;100293.00;108574;1253;61600;-74
2024/04/23 02:32:50;;;;;;;13.00;10.80;;;;;;;8.39;80.72;100296.60;108580;1253;59071;-75
2024/04/23 02:35:18;;;;;;;59.20;42.70;;;;;;;8.31;81.01;100291.25;108850;1253;72917;-73
2024/04/23 02:37:45;;;;;;;18.60;14.70;;;;;;;8.25;81.35;100292.64;108233;1252;70075;-74
2024/04/23 02:40:13;;;;;;;12.10;9.90;;;;;;;8.21;81.33;100290.67;108337;1253;71394;-73
2024/04/23 02:42:40;;;;;;;12.80;9.30;;;;;;;8.24;80.95;100290.02;107924;1253;61146;-71
2024/04/23 02:45:08;;;;;;;11.90;9.20;;;;;;;8.26;80.83;100289.30;108097;1253;60389;-72
2024/04/23 02:47:36;;;;;;;12.10;8.80;;;;;;;8.17;80.85;100284.52;108091;1257;73413;-74
2024/04/23 02:50:04;;;;;;;12.10;10.20;;;;;;;8.10;80.95;100285.54;108433;1253;68853;-72
2024/04/23 02:52:32;;;;;;;11.10;9.80;;;;;;;8.02;81.49;100288.15;108065;1257;71295;-73
2024/04/23 02:55:02;;;;;;;11.60;10.00;;;;;;;7.99;81.44;100292.72;107091;1254;61300;-72
2024/04/23 02:57:30;;;;;;;12.10;9.60;;;;;;;8.01;81.82;100295.50;107631;1253;61241;-73
2024/04/23 02:59:57;;;;;;;10.00;8.20;;;;;;;8.14;81.51;100298.21;107938;1253;73523;-73
2024/04/23 03:02:25;;;;;;;10.40;7.90;;;;;;;8.27;81.06;100303.70;108457;1253;68746;-74
2024/04/23 03:04:52;;;;;;;12.10;9.00;;;;;;;8.25;80.61;100302.17;107458;1254;71172;-74
2024/04/23 03:07:20;;;;;;;11.40;9.00;;;;;;;8.19;80.84;100304.13;108789;1253;59966;-74
2024/04/23 03:09:47;;;;;;;11.90;10.10;;;;;;;8.15;81.05;100308.20;108037;1253;61269;-76
2024/04/23 03:12:14;;;;;;;11.70;10.00;;;;;;;8.12;81.30;100310.36;107575;1253;73621;-73
2024/04/23 03:14:42;;;;;;;10.70;8.90;;;;;;;8.11;81.55;100308.93;108161;1253;69152;-74
2024/04/23 03:17:09;;;;;;;10.90;9.00;;;;;;;8.21;81.71;100312.79;108985;1253;71403;-73
2024/04/23 03:19:36;;;;;;;10.80;8.50;;;;;;;8.30;80.75;100309.34;107788;1257;59865;-74
2024/04/23 03:22:04;;;;;;;11.60;9.40;;;;;;;8.30;80.96;100312.85;107777;1253;60349;-74
2024/04/23 03:24:34;;;;;;;11.90;9.00;;;;;;;8.30;80.82;100310.00;107627;1253;72739;-72
2024/04/23 03:27:01;;;;;;;11.10;9.40;;;;;;;8.30;80.92;100313.18;108262;1253;68821;-72
2024/04/23 03:29:28;;;;;;;10.40;9.20;;;;;;;8.32;81.03;100316.02;108102;1253;72685;-73
2024/04/23 03:32:01;;;;;;;11.50;9.30;;;;;;;8.34;80.91;100314.27;107948;1257;61364;-73
2024/04/23 03:34:31;;;;;;;11.00;8.10;;;;;;;8.35;80.53;100315.85;108117;1252;61048;-73
2024/04/23 03:36:58;;;;;;;8.80;7.90;;;;;;;8.45;80.20;100315.88;108498;1252;73714;-72
2024/04/23 03:39:25;;;;;;;8.50;7.60;;;;;;;8.53;79.94;100324.36;108200;1253;69040;-73
2024/04/23 03:41:56;;;;;;;13.30;7.70;;;;;;;8.52;80.03;100325.66;108603;1252;71153;-74
2024/04/23 03:44:24;;;;;;;11.00;7.50;;;;;;;8.48;79.87;100326.56;108511;1256;59202;-74
2024/04/23 03:46:52;;;;;;;9.60;8.00;;;;;;;8.48;79.98;100330.66;108690;1253;60194;-71
2024/04/23 03:49:20;;;;;;;9.20;7.70;;;;;;;8.47;79.81;100336.53;108979;1253;73511;-75
2024/04/23 03:51:47;;;;;;;9.90;7.50;;;;;;;8.46;79.70;100334.88;108855;1253;68782;-72
2024/04/23 03:54:15;;;;;;;8.20;7.10;;;;;;;8.54;79.62;100339.13;108517;1254;71377;-74
2024/04/23 03:56:42;;;;;;;8.70;6.60;;;;;;;8.63;79.84;100343.69;108454;1252;61192;-74
2024/04/23 03:59:09;;;;;;;9.30;7.00;;;;;;;8.64;79.73;100345.79;108441;1252;61742;-72
2024/04/23 04:01:37;;;;;;;8.30;7.20;;;;;;;8.61;79.47;100350.13;107847;1256;73471;-72
2024/04/23 04:06:55;;;;;;;9.00;7.20;;;;;;;8.46;79.18;100356.41;108147;1256;71034;-73
2024/04/23 04:09:22;;;;;;;10.40;7.60;;;;;;;8.40;79.52;100355.38;108788;1255;60372;-74
2024/04/23 04:11:49;;;;;;;8.50;6.70;;;;;;;8.45;79.30;100354.41;109021;1254;58734;-73
2024/04/23 04:14:17;;;;;;;9.10;7.00;;;;;;;8.53;79.37;100360.53;108398;1256;74796;-74
2024/04/23 04:16:44;;;;;;;7.90;6.00;;;;;;;8.55;79.61;100362.38;108321;1254;70730;-73
2024/04/23 04:19:11;;;;;;;7.80;6.30;;;;;;;8.52;79.16;100369.84;108076;1255;71378;-74
2024/04/23 04:21:39;;;;;;;8.00;6.30;;;;;;;8.45;79.37;100376.23;107482;1253;61221;-73
2024/04/23 04:24:06;;;;;;;7.50;6.80;;;;;;;8.41;79.16;100375.58;107628;1254;61230;-75
2024/04/23 04:26:33;;;;;;;7.50;6.70;;;;;;;8.37;79.09;100375.58;108143;1254;73372;-73
2024/04/23 04:29:01;;;;;;;10.70;6.50;;;;;;;8.43;79.09;100370.09;107960;1254;68718;-74
2024/04/23 04:31:28;;;;;;;8.10;6.50;;;;;;;8.50;78.92;100373.02;108168;1256;71410;-71
2024/04/23 04:33:56;;;;;;;12.50;6.30;;;;;;;8.51;79.17;100377.48;108480;1256;61312;-73
2024/04/23 04:36:23;;;;;;;10.30;6.30;;;;;;;8.52;79.20;100382.51;107361;1254;60682;-72
2024/04/23 04:38:50;;;;;;;7.50;6.30;;;;;;;8.51;79.21;100382.26;108227;1258;75015;-72
2024/04/23 04:41:18;;;;;;;7.30;6.50;;;;;;;8.49;79.23;100381.77;107558;1254;69000;-72
2024/04/23 04:43:45;;;;;;;7.10;6.00;;;;;;;8.44;79.08;100377.90;107839;1254;75146;-72
2024/04/23 04:46:13;;;;;;;7.70;5.50;;;;;;;8.44;79.22;100382.89;108405;1254;61782;-73
2024/04/23 04:48:40;;;;;;;8.90;6.00;;;;;;;8.54;79.33;100385.18;108614;1254;59957;-71
2024/04/23 04:51:09;;;;;;;7.70;6.30;;;;;;;8.62;79.00;100388.83;108548;1254;74726;-71
2024/04/23 04:53:36;;;;;;;10.50;7.70;;;;;;;8.59;78.91;100387.69;108390;1254;68979;-71
2024/04/23 04:56:04;;;;;;;7.80;6.90;;;;;;;8.54;79.01;100387.99;108661;1254;72280;-73
2024/04/23 04:58:31;;;;;;;7.90;7.10;;;;;;;8.51;79.52;100392.56;108890;1254;61116;-72
2024/04/23 05:01:01;;;;;;;9.10;7.90;;;;;;;8.47;79.64;100395.48;109164;1253;60576;-72
2024/04/23 05:03:28;;;;;;;9.80;6.90;;;;;;;8.41;79.81;100392.67;109247;1253;74711;-74
2024/04/23 05:05:56;;;;;;;8.80;6.30;;;;;;;8.45;79.33;100390.08;108930;1253;71047;-74
2024/04/23 05:08:23;;;;;;;7.20;6.00;;;;;;;8.50;79.92;100391.70;108821;1253;72904;-73
2024/04/23 05:10:51;;;;;;;7.60;6.70;;;;;;;8.51;80.33;100392.66;109118;1252;61401;-74
2024/04/23 05:13:19;;;;;;;7.70;6.50;;;;;;;8.55;81.16;100391.48;109183;1253;60942;-73
2024/04/23 05:15:46;;;;;;;8.10;6.20;;;;;;;8.59;81.49;100380.63;109325;1253;73530;-73
2024/04/23 05:18:14;;;;;;;6.80;6.00;;;;;;;8.62;81.10;100367.50;109383;1253;70558;-74
2024/04/23 05:20:41;;;;;;;6.70;5.30;;;;;;;8.61;80.60;100370.23;109277;1252;74113;-74
2024/04/23 05:23:08;;;;;;;5.80;4.30;;;;;;;8.70;80.28;100369.95;109209;1252;60792;-73
2024/04/23 05:25:36;;;;;;;6.30;5.00;;;;;;;8.78;80.07;100370.98;109007;1253;60991;-74
2024/04/23 05:28:04;;;;;;;5.60;5.10;;;;;;;8.83;80.25;100371.22;108879;1253;75769;-74
2024/04/23 05:33:17;;;;;;;6.90;5.30;;;;;;;9.03;81.01;100383.85;109207;1252;71223;-73
2024/04/23 05:35:45;;;;;;;7.50;5.40;;;;;;;9.11;80.68;100385.92;109203;1252;60398;-74
2024/04/23 05:38:12;;;;;;;5.30;4.80;;;;;;;9.29;80.39;100386.09;109382;1251;60862;-72
2024/04/23 05:40:43;;;;;;;7.10;4.70;;;;;;;9.45;79.09;100388.57;108995;1253;75833;-74
2024/04/23 05:43:11;;;;;;;6.00;5.20;;;;;;;9.49;78.53;100382.07;108898;1256;70662;-73
2024/04/23 05:45:38;;;;;;;6.70;5.20;;;;;;;9.52;78.58;100384.59;108970;1252;73653;-72
2024/04/23 05:48:44;;;;;;;6.30;5.10;;;;;;;9.58;78.20;100383.36;108931;1252;59386;-78
2024/04/23 05:52:07;;;;;;;6.50;5.90;;;;;;;9.63;77.81;100383.71;109152;1252;58831;-79
2024/04/23 05:55:33;;;;;;;7.40;4.80;;;;;;;9.63;77.28;100390.95;109115;1253;73395;-78
2024/04/23 05:58:01;;;;;;;6.00;5.00;;;;;;;9.74;76.84;100397.34;108298;1253;67798;-79
2024/04/23 06:00:28;;;;;;;6.50;5.00;;;;;;;9.77;76.42;100393.36;107074;1253;73661;-77
2024/04/23 06:02:56;;;;;;;5.70;5.20;;;;;;;9.76;76.23;100389.06;107062;1252;61594;-75
2024/04/23 06:05:24;;;;;;;8.70;5.80;;;;;;;9.75;76.45;100391.08;108352;1253;61260;-77
2024/04/23 06:07:53;;;;;;;8.40;5.70;;;;;;;9.76;76.39;100395.80;108552;1253;75655;-77
2024/04/23 06:10:21;;;;;;;8.90;6.20;;;;;;;9.77;76.50;100395.65;108450;1252;69561;-77
2024/04/23 06:12:48;;;;;;;8.60;6.00;;;;;;;9.79;76.31;100395.08;108066;1254;71474;-75
2024/04/23 06:15:18;;;;;;;8.20;5.70;;;;;;;9.80;76.22;100385.96;108571;1253;62639;-78
2024/04/23 06:17:46;;;;;;;8.70;4.90;;;;;;;9.95;75.86;100387.70;108967;1251;60965;-77
2024/04/23 06:20:15;;;;;;;6.40;5.60;;;;;;;10.07;75.68;100390.85;109056;1253;75658;-78
2024/04/23 06:22:48;;;;;;;6.50;5.60;;;;;;;10.10;75.62;100385.45;108942;1252;69702;-79
2024/04/23 06:25:17;;;;;;;7.20;6.30;;;;;;;10.15;75.68;100390.64;108900;1253;73463;-79
2024/04/23 06:27:44;;;;;;;7.50;6.40;;;;;;;10.21;75.49;100395.66;108686;1253;61247;-80
2024/04/23 06:30:15;;;;;;;6.70;6.00;;;;;;;10.27;75.08;100398.50;107402;1253;61196;-79
2024/04/23 06:32:43;;;;;;;7.20;6.40;;;;;;;10.28;74.69;100399.25;106039;1260;74712;-80
2024/04/23 06:35:11;;;;;;;7.70;6.40;;;;;;;10.29;74.32;100395.97;106050;1253;72294;-81
2024/04/23 06:37:38;;;;;;;7.50;6.60;;;;;;;10.32;74.38;100397.84;107236;1252;71840;-79
2024/04/23 06:40:08;;;;;;;7.60;5.80;;;;;;;10.35;73.41;100391.83;108383;1256;62698;-81
2024/04/23 06:42:37;;;;;;;7.80;6.10;;;;;;;10.47;73.26;100393.05;108346;1253;59226;-79
2024/04/23 06:45:05;;;;;;;8.50;6.60;;;;;;;10.59;73.11;100394.66;108126;1252;75337;-78
2024/04/23 06:47:33;;;;;;;7.80;6.20;;;;;;;10.65;72.92;100400.83;108291;1259;71323;-79
2024/04/23 06:50:01;;;;;;;6.60;6.00;;;;;;;10.69;72.92;100399.64;108162;1253;74330;-78
2024/04/23 06:52:29;;;;;;;7.70;5.90;;;;;;;10.76;72.90;100400.56;108374;1253;61254;-75
2024/04/23 06:54:58;;;;;;;6.30;5.70;;;;;;;10.79;72.53;100401.15;108416;1253;61230;-81
2024/04/23 06:57:26;;;;;;;7.60;6.20;;;;;;;10.84;72.69;100403.61;108499;1253;75670;-75
2024/04/23 06:59:53;;;;;;;7.30;6.30;;;;;;;10.94;71.94;100404.27;108289;1253;70965;-75
2024/04/23 07:02:21;;;;;;;7.50;6.20;;;;;;;11.07;72.19;100405.85;108565;1253;74662;-77
2024/04/23 07:04:49;;;;;;;7.30;6.10;;;;;;;11.25;72.30;100402.42;108026;1256;61216;-79
2024/04/23 07:07:16;;;;;;;9.90;6.00;;;;;;;11.45;71.72;100404.60;108377;1252;59240;-76
2024/04/23 07:09:44;;;;;;;7.90;6.20;;;;;;;11.61;71.17;100402.58;108124;1253;73819;-78
2024/04/23 07:12:11;;;;;;;8.30;5.30;;;;;;;11.77;70.81;100402.88;108162;1253;71138;-78
2024/04/23 07:14:39;;;;;;;7.10;5.40;;;;;;;12.02;69.89;100403.91;108344;1257;72368;-78
2024/04/23 07:17:06;;;;;;;5.50;5.00;;;;;;;12.17;69.32;100401.61;108007;1253;61122;-76
2024/04/23 07:19:34;;;;;;;7.80;5.90;;;;;;;12.24;68.76;100403.34;108282;1257;61512;-78
2024/04/23 07:22:02;;;;;;;6.90;6.20;;;;;;;12.30;68.51;100404.27;108534;1254;73711;-78
2024/04/23 07:24:29;;;;;;;11.80;6.30;;;;;;;12.38;68.00;100403.79;108636;1252;71532;-78
2024/04/23 07:26:57;;;;;;;9.60;5.90;;;;;;;12.39;67.30;100405.98;108530;1253;73710;-79
2024/04/23 07:29:27;;;;;;;6.20;5.10;;;;;;;12.39;67.16;100406.20;109130;1252;59414;-78
2024/04/23 07:31:56;;;;;;;5.50;4.90;;;;;;;12.34;66.80;100403.46;108917;1252;59598;-81
2024/04/23 07:34:28;;;;;;;7.70;5.50;;;;;;;12.29;66.62;100406.67;108686;1253;76521;-80
2024/04/23 07:36:56;;;;;;;7.30;5.20;;;;;;;12.24;66.66;100405.10;108916;1252;71522;-78
2024/04/23 07:39:25;;;;;;;6.90;5.50;;;;;;;12.24;66.70;100406.06;108778;1253;73708;-81
2024/04/23 07:41:53;;;;;;;6.70;6.00;;;;;;;12.28;66.59;100402.05;108839;1254;61121;-82
2024/04/23 07:44:23;;;;;;;8.10;6.20;;;;;;;12.34;66.85;100399.42;109072;1253;61204;-77
2024/04/23 07:46:51;;;;;;;6.20;5.60;;;;;;;12.49;67.18;100393.80;109054;1253;75801;-80
2024/04/23 07:49:24;;;;;;;6.30;5.70;;;;;;;12.69;67.15;100391.23;109045;1253;71235;-82
2024/04/23 07:51:52;;;;;;;7.20;5.90;;;;;;;12.87;66.64;100385.77;108982;1252;74701;-81
2024/04/23 07:54:20;;;;;;;9.20;6.20;;;;;;;12.99;65.57;100383.16;109331;1253;60618;-78
2024/04/23 07:56:50;;;;;;;7.90;6.00;;;;;;;13.08;65.76;100380.77;109002;1253;60218;-81
2024/04/23 07:59:20;;;;;;;10.50;6.10;;;;;;;13.17;65.44;100381.70;109094;1253;74576;-77
2024/04/23 08:01:48;;;;;;;7.10;5.80;;;;;;;13.26;65.49;100380.20;108929;1253;69291;-76
2024/04/23 08:04:16;;;;;;;6.90;6.20;;;;;;;13.33;64.01;100376.36;108572;1254;70215;-78
2024/04/23 08:06:46;;;;;;;7.00;5.30;;;;;;;13.30;63.57;100370.77;108380;1252;61714;-78
2024/04/23 08:09:17;;;;;;;7.00;5.80;;;;;;;13.29;63.65;100373.13;108304;1253;61810;-78
2024/04/23 08:11:47;;;;;;;7.10;6.20;;;;;;;13.31;63.75;100371.73;108743;1253;75154;-75
2024/04/23 08:14:14;;;;;;;7.10;4.80;;;;;;;13.34;62.78;100374.23;108267;1252;315091;-79
2024/04/23 08:18:40;;;;;;;7.00;5.20;;;;;;;13.29;61.94;100374.53;105029;1295;600013;-78
2024/04/23 08:21:13;;;;;;;6.40;5.40;;;;;;;13.24;61.85;100369.26;106824;1266;62215;-79
2024/04/23 08:23:45;;;;;;;5.70;5.20;;;;;;;13.25;61.99;100368.05;107699;1257;59261;-76
2024/04/23 08:26:15;;;;;;;6.10;5.30;;;;;;;13.26;61.87;100365.16;108144;1254;74016;-75
2024/04/23 08:28:46;;;;;;;6.80;5.60;;;;;;;13.25;62.20;100363.28;107542;1257;70236;-77
2024/04/23 08:31:15;;;;;;;5.10;4.50;;;;;;;13.24;61.90;100361.45;106950;1255;637401;-75
2024/04/23 08:33:45;;;;;;;6.50;5.80;;;;;;;13.20;61.97;100361.34;107558;1257;62178;-77
2024/04/23 08:36:13;;;;;;;7.10;5.20;;;;;;;13.19;62.47;100362.83;107328;1254;60161;-78
2024/04/23 08:38:46;;;;;;;5.80;5.30;;;;;;;13.23;62.67;100361.73;107308;1254;73188;-79
2024/04/23 08:41:16;;;;;;;6.90;5.30;;;;;;;13.27;62.67;100361.61;108116;1254;70986;-78
2024/04/23 08:44:03;;;;;;;7.10;5.30;;;;;;;13.30;62.71;100368.60;108069;1254;74978;-77
2024/04/23 08:46:36;;;;;;;5.90;5.40;;;;;;;13.34;62.53;100368.66;107585;1254;61231;-77
2024/04/23 08:49:06;;;;;;;6.60;5.00;;;;;;;13.38;61.83;100366.15;107840;1254;61986;-79
2024/04/23 08:51:36;;;;;;;7.30;6.60;;;;;;;13.44;62.20;100367.04;107483;1255;73229;-78
2024/04/23 08:54:08;;;;;;;8.30;6.10;;;;;;;13.56;62.24;100364.98;107152;1251;72726;-80
2024/04/23 08:56:44;;;;;;;6.50;5.90;;;;;;;13.68;60.88;100368.85;108043;1254;73560;-78
2024/04/23 08:59:22;;;;;;;6.30;5.70;;;;;;;13.68;60.46;100360.68;108433;1254;62098;-78
2024/04/23 09:01:55;;;;;;;6.30;5.70;;;;;;;13.64;60.85;100359.90;108329;1253;61230;-78
2024/04/23 09:04:23;;;;;;;8.90;6.60;;;;;;;13.66;61.33;100357.89;108370;1252;74722;-80
2024/04/23 09:06:58;;;;;;;7.30;6.40;;;;;;;13.74;61.53;100358.89;108376;1255;70147;-79
2024/04/23 09:09:27;;;;;;;8.50;5.90;;;;;;;13.80;60.00;100362.14;108010;1254;72188;-78
2024/04/23 09:12:01;;;;;;;6.70;6.00;;;;;;;13.77;59.27;100363.71;108249;1257;60415;-79
2024/04/23 09:14:31;;;;;;;6.80;6.20;;;;;;;13.72;58.85;100371.87;108210;1254;61225;-80
2024/04/23 09:17:01;;;;;;;7.60;6.70;;;;;;;13.55;59.26;100371.17;108365;1253;75215;-78
2024/04/23 09:19:30;;;;;;;7.00;6.30;;;;;;;13.42;59.42;100369.15;108521;1254;68988;-77
2024/04/23 09:22:04;;;;;;;7.40;6.60;;;;;;;13.34;59.69;100365.66;108589;1253;71568;-79
2024/04/23 09:24:36;;;;;;;9.20;6.40;;;;;;;13.31;59.91;100363.70;108716;1254;61046;-77
2024/04/23 09:27:11;;;;;;;7.30;6.60;;;;;;;13.42;60.31;100364.84;108349;1253;59533;-76
2024/04/23 09:29:39;;;;;;;7.20;6.50;;;;;;;13.58;60.65;100365.16;108255;1254;72455;-79
2024/04/23 09:32:06;;;;;;;7.80;6.60;;;;;;;13.75;60.39;100367.02;108949;1254;69551;-76
2024/04/23 09:34:34;;;;;;;7.60;6.70;;;;;;;13.93;59.71;100370.52;108537;1254;71525;-77
2024/04/23 09:37:16;;;;;;;8.50;6.40;;;;;;;14.11;59.27;100364.30;108772;1253;60739;-81
2024/04/23 09:39:44;;;;;;;7.50;6.40;;;;;;;14.30;58.92;100360.47;109112;1254;62090;-82
2024/04/23 09:42:28;;;;;;;6.60;6.00;;;;;;;14.54;58.44;100356.33;108775;1254;72560;-82
2024/04/23 09:44:56;;;;;;;7.60;6.90;;;;;;;14.76;58.44;100360.73;108796;1254;70974;-82
2024/04/23 09:47:23;;;;;;;8.00;6.50;;;;;;;15.05;58.22;100357.39;108780;1259;73706;-86
2024/04/23 09:49:55;;;;;;;7.80;7.00;;;;;;;15.42;57.63;100354.66;108767;1254;61033;-78
2024/04/23 09:52:31;;;;;;;11.80;6.60;;;;;;;15.97;57.25;100351.33;108910;1254;60318;-74
2024/04/23 09:55:03;;;;;;;7.10;6.40;;;;;;;16.59;55.83;100349.89;108576;1253;74796;-72
2024/04/23 09:57:34;;;;;;;7.60;6.90;;;;;;;17.23;54.85;100348.29;108341;1254;71758;-74
2024/04/23 10:00:03;;;;;;;7.10;6.20;;;;;;;17.81;54.07;100351.30;108478;1254;72581;-73
2024/04/23 10:02:30;;;;;;;8.70;6.80;;;;;;;18.20;52.26;100349.65;108178;1254;61060;-71
2024/04/23 10:05:09;;;;;;;6.40;5.80;;;;;;;18.39;51.13;100342.82;107959;1253;60822;-74
2024/04/23 10:07:43;;;;;;;7.30;6.60;;;;;;;18.57;50.32;100343.84;106925;1254;74812;-74
2024/04/23 10:10:10;;;;;;;11.30;6.20;;;;;;;18.84;49.81;100343.13;106671;1254;72442;-73
2024/04/23 10:12:42;;;;;;;7.00;6.30;;;;;;;19.05;49.22;100346.92;106207;1258;73612;-72
2024/04/23 10:15:26;;;;;;;8.80;6.40;;;;;;;19.16;48.58;100349.02;106479;1254;60453;-71
2024/04/23 10:17:59;;;;;;;7.80;6.90;;;;;;;19.07;47.74;100350.61;106553;1257;62195;-74
2024/04/23 10:20:30;;;;;;;7.30;6.60;;;;;;;18.82;47.49;100352.52;106646;1253;76012;-74
2024/04/23 10:22:57;;;;;;;8.00;7.20;;;;;;;18.65;47.35;100352.66;106189;1260;69325;-71
2024/04/23 10:25:24;;;;;;;6.90;6.30;;;;;;;18.59;47.31;100357.58;106203;1255;72997;-72
2024/04/23 10:27:53;;;;;;;8.20;6.70;;;;;;;18.60;47.59;100356.21;106351;1254;60601;-73
2024/04/23 10:30:21;;;;;;;7.90;6.80;;;;;;;18.83;48.30;100353.43;106378;1254;60409;-74
2024/04/23 10:32:48;;;;;;;8.50;7.00;;;;;;;19.18;47.78;100353.45;106261;1257;73841;-73
2024/04/23 10:35:16;;;;;;;6.00;5.40;;;;;;;19.46;45.87;100356.63;106139;1254;72712;-74
2024/04/23 10:37:44;;;;;;;6.20;5.20;;;;;;;19.55;44.14;100354.31;106097;1254;72816;-70
2024/04/23 10:40:13;;;;;;;7.30;5.50;;;;;;;19.59;44.77;100351.56;106062;1267;60626;-69
2024/04/23 10:42:41;;;;;;;6.40;5.70;;;;;;;19.87;44.80;100354.14;108322;1257;62122;-72
2024/04/23 10:45:10;;;;;;;6.80;5.80;;;;;;;19.96;44.11;100345.77;108419;1252;75077;-73
2024/04/23 10:47:50;;;;;;;5.40;4.90;;;;;;;19.80;44.53;100349.70;105990;1253;71273;-72
2024/04/23 10:50:30;;;;;;;5.90;5.00;;;;;;;19.57;43.23;100350.08;105964;1254;74700;-72
2024/04/23 10:52:59;;;;;;;6.90;5.60;;;;;;;19.11;43.89;100344.88;106297;1253;60646;-72
2024/04/23 10:55:26;;;;;;;8.30;5.80;;;;;;;18.95;44.99;100344.95;106094;1259;60528;-72
2024/04/23 10:57:54;;;;;;;5.30;4.80;;;;;;;19.00;44.83;100343.40;105987;1254;72701;-74
2024/04/23 11:00:31;;;;;;;6.20;4.70;;;;;;;18.93;44.17;100344.77;106557;1254;70177;-76
2024/04/23 11:02:59;;;;;;;4.60;4.20;;;;;;;18.74;44.24;100343.56;106235;1254;72975;-75
2024/04/23 11:05:32;;;;;;;7.30;5.10;;;;;;;18.66;44.59;100344.41;106176;1254;60538;-76
2024/04/23 11:08:07;;;;;;;5.70;5.20;;;;;;;18.56;44.69;100342.55;106224;1257;61104;-75
2024/04/23 11:10:50;;;;;;;6.90;6.20;;;;;;;18.32;45.05;100353.06;106189;1254;75781;-75
2024/04/23 11:13:25;;;;;;;7.30;6.40;;;;;;;17.99;46.03;100352.40;106799;1253;72364;-73
2024/04/23 11:15:54;;;;;;;6.90;5.90;;;;;;;17.74;46.80;100351.70;106354;1254;74764;-74
2024/04/23 11:18:25;;;;;;;6.80;6.10;;;;;;;17.53;47.11;100354.09;106284;1254;61471;-75
2024/04/23 11:20:56;;;;;;;8.20;5.90;;;;;;;17.33;47.68;100354.64;106244;1253;62431;-72
2024/04/23 11:23:24;;;;;;;6.80;6.20;;;;;;;17.14;47.96;100355.50;106317;1253;77416;-72
2024/04/23 11:25:51;;;;;;;7.50;6.40;;;;;;;16.93;48.16;100354.38;106574;1254;70878;-73
2024/04/23 11:28:19;;;;;;;6.60;5.70;;;;;;;16.74;48.89;100356.83;106079;1254;71305;-71
2024/04/23 11:30:51;;;;;;;6.00;5.30;;;;;;;16.63;48.92;100356.30;106096;1254;62134;-71
2024/04/23 11:33:19;;;;;;;4.90;4.40;;;;;;;16.61;49.25;100351.19;106371;1253;60995;-75
2024/04/23 11:35:54;;;;;;;6.00;5.20;;;;;;;16.66;49.14;100346.88;106200;1254;75599;-76